createdAt,value
2022-12-11T00:03:50.072Z,35.87
2022-12-11T00:08:54.198Z,38.17
2022-12-11T00:13:58.420Z,39.80
2022-12-11T00:19:01.338Z,41.23
2022-12-11T00:24:04.365Z,43.17
2022-12-11T00:29:11.084Z,42.23
2022-12-11T00:34:14.015Z,41.57
2022-12-11T00:39:16.924Z,41.47
2022-12-11T00:44:21.752Z,41.37
2022-12-11T00:49:24.695Z,40.80
2022-12-11T00:54:27.580Z,40.07
2022-12-11T00:59:31.831Z,43.17
2022-12-11T01:04:36.871Z,42.03
2022-12-11T01:09:57.131Z,42.67
2022-12-11T01:15:01.399Z,41.50
2022-12-11T01:20:04.859Z,41.53
2022-12-11T01:25:09.530Z,40.30
2022-12-11T01:30:14.412Z,38.73
2022-12-11T01:35:18.260Z,41.10
2022-12-11T01:40:21.627Z,40.43
2022-12-11T01:45:38.593Z,41.73
2022-12-11T01:50:46.216Z,41.60
2022-12-11T01:55:52.337Z,42.30
2022-12-11T02:00:57.675Z,42.13
2022-12-11T02:06:00.912Z,42.83
2022-12-11T02:11:11.029Z,43.97
2022-12-11T02:16:23.869Z,42.07
2022-12-11T02:21:29.550Z,43.37
2022-12-11T02:26:48.084Z,42.13
2022-12-11T02:31:59.313Z,40.20
2022-12-11T02:37:06.748Z,40.33
2022-12-11T02:42:12.060Z,41.40
2022-12-11T02:47:18.462Z,40.70
2022-12-11T02:52:24.722Z,40.83
2022-12-11T02:57:32.670Z,42.67
2022-12-11T03:02:38.149Z,42.30
2022-12-11T03:07:43.446Z,41.37
2022-12-11T03:12:53.383Z,43.20
2022-12-11T03:18:05.179Z,40.93
2022-12-11T03:23:19.251Z,41.43
2022-12-11T03:28:28.272Z,42.00
2022-12-11T03:33:36.764Z,41.93
2022-12-11T03:38:45.141Z,42.03
2022-12-11T03:43:50.140Z,41.50
2022-12-11T03:48:57.525Z,43.47
2022-12-11T03:54:01.102Z,42.80
2022-12-11T03:59:04.015Z,42.10
2022-12-11T04:04:08.366Z,41.50
2022-12-11T04:09:11.306Z,40.70
2022-12-11T04:14:33.241Z,41.70
2022-12-11T04:19:55.586Z,39.50
2022-12-11T04:24:58.486Z,42.10
2022-12-11T04:30:01.362Z,41.73
2022-12-11T04:35:10.828Z,42.13
2022-12-11T04:40:16.616Z,40.63
2022-12-11T04:45:19.704Z,41.10
2022-12-11T04:50:24.138Z,40.93
2022-12-11T04:55:27.182Z,40.33
2022-12-11T05:00:30.056Z,40.60
2022-12-11T05:05:34.377Z,40.73
2022-12-11T05:10:37.255Z,40.77
2022-12-11T05:15:40.481Z,41.23
2022-12-11T05:20:44.782Z,40.67
2022-12-11T05:25:53.102Z,41.03
2022-12-11T05:31:00.022Z,41.80
2022-12-11T05:36:05.152Z,40.57
2022-12-11T05:41:08.961Z,41.85
2022-12-11T05:46:13.998Z,41.70
2022-12-11T05:51:19.162Z,43.17
2022-12-11T05:56:24.491Z,39.73
2022-12-11T06:01:30.348Z,42.63
2022-12-11T06:06:35.023Z,41.97
2022-12-11T06:11:38.131Z,40.87
2022-12-11T06:16:41.054Z,41.27
2022-12-11T06:21:48.762Z,43.23
2022-12-11T06:26:51.631Z,40.23
2022-12-11T06:31:54.575Z,40.73
2022-12-11T06:36:58.826Z,40.87
2022-12-11T06:42:01.741Z,42.37
2022-12-11T06:47:05.368Z,41.17
2022-12-11T06:52:12.515Z,40.77
2022-12-11T06:57:20.264Z,42.03
2022-12-11T07:02:23.246Z,41.20
2022-12-11T07:07:27.502Z,42.00
2022-12-11T07:12:30.387Z,43.20
2022-12-11T07:17:33.312Z,44.70
2022-12-11T07:22:40.402Z,43.33
2022-12-11T07:27:47.603Z,39.97
2022-12-11T07:32:50.503Z,42.10
2022-12-11T07:37:54.752Z,43.17
2022-12-11T07:42:57.610Z,41.13
2022-12-11T07:48:00.470Z,42.90
2022-12-11T07:53:04.678Z,44.77
2022-12-11T07:58:07.550Z,41.50
2022-12-11T08:03:10.397Z,42.33
2022-12-11T08:08:14.715Z,42.63
2022-12-11T08:13:17.607Z,42.33
2022-12-11T08:18:20.542Z,42.10
2022-12-11T08:23:24.740Z,42.17
2022-12-11T08:28:27.633Z,42.73
2022-12-11T08:33:30.556Z,43.27
2022-12-11T08:38:35.039Z,45.00
2022-12-11T08:43:38.140Z,39.93
2022-12-11T08:48:42.486Z,47.63
2022-12-11T08:53:46.690Z,44.07
2022-12-11T08:58:49.650Z,43.27
2022-12-11T09:03:54.002Z,42.43
2022-12-11T09:09:00.929Z,45.40
2022-12-11T09:14:07.584Z,42.93
2022-12-11T09:19:14.028Z,41.70
2022-12-11T09:24:18.276Z,41.30
2022-12-11T09:29:21.171Z,43.10
2022-12-11T09:34:29.071Z,40.90
2022-12-11T09:39:33.725Z,40.77
2022-12-11T09:44:43.232Z,41.70
2022-12-11T09:49:48.245Z,42.40
2022-12-11T09:54:55.300Z,41.83
2022-12-11T10:00:17.288Z,42.70
2022-12-11T10:05:29.779Z,42.07
2022-12-11T10:10:42.169Z,41.20
2022-12-11T10:15:50.836Z,41.00
2022-12-11T10:20:55.104Z,41.07
2022-12-11T10:26:09.472Z,41.83
2022-12-11T10:31:18.329Z,42.30
2022-12-11T10:36:28.429Z,41.60
2022-12-11T10:41:39.932Z,42.50
2022-12-11T10:46:42.898Z,44.97
2022-12-11T10:51:46.024Z,45.47
2022-12-11T10:56:51.530Z,59.23
2022-12-11T11:01:55.125Z,44.60
2022-12-11T11:07:12.345Z,43.77
2022-12-11T11:12:26.072Z,42.70
2022-12-11T11:17:33.790Z,42.47
2022-12-11T11:22:41.612Z,45.07
2022-12-11T11:27:49.742Z,42.43
2022-12-11T11:32:56.222Z,44.77
2022-12-11T11:38:04.188Z,43.33
2022-12-11T11:43:30.156Z,43.50
2022-12-11T11:48:41.370Z,42.47
2022-12-11T11:53:49.092Z,43.43
2022-12-11T11:59:02.377Z,44.27
2022-12-11T12:04:06.054Z,42.17
2022-12-11T12:09:21.777Z,43.37
2022-12-11T12:14:51.710Z,46.97
2022-12-11T12:20:04.851Z,44.00
2022-12-11T12:25:19.642Z,43.90
2022-12-11T12:30:24.346Z,46.20
2022-12-11T12:35:35.823Z,43.23
2022-12-11T12:40:51.816Z,42.73
2022-12-11T12:46:11.375Z,42.43
2022-12-11T12:51:15.928Z,48.77
2022-12-11T12:56:19.212Z,44.43
2022-12-11T13:01:26.203Z,43.87
2022-12-11T13:06:32.566Z,43.33
2022-12-11T13:11:36.855Z,43.63
2022-12-11T13:16:42.873Z,44.70
2022-12-11T13:21:57.017Z,43.37
2022-12-11T13:27:10.454Z,47.60
2022-12-11T13:32:25.510Z,45.20
2022-12-11T13:37:33.075Z,44.73
2022-12-11T13:42:45.212Z,43.50
2022-12-11T13:47:49.647Z,42.17
2022-12-11T13:52:55.715Z,44.83
2022-12-11T13:57:59.488Z,45.83
2022-12-11T14:03:07.376Z,44.87
2022-12-11T14:08:11.095Z,43.23
2022-12-11T14:13:20.983Z,42.67
2022-12-11T14:18:28.233Z,42.20
2022-12-11T14:23:32.702Z,43.43
2022-12-11T14:28:39.489Z,42.70
2022-12-11T14:33:51.426Z,41.57
2022-12-11T14:39:00.446Z,42.93
2022-12-11T14:44:07.663Z,42.57
2022-12-11T14:49:19.994Z,43.20
2022-12-11T14:54:29.476Z,43.33
2022-12-11T14:59:39.258Z,42.93
2022-12-11T15:04:43.482Z,42.87
2022-12-11T15:09:47.683Z,43.13
2022-12-11T15:14:53.386Z,41.90
2022-12-11T15:20:07.347Z,43.20
2022-12-11T15:25:21.020Z,42.73
2022-12-11T15:30:33.188Z,43.17
2022-12-11T15:35:39.114Z,44.10
2022-12-11T15:40:42.007Z,43.33
2022-12-11T15:45:44.952Z,42.47
2022-12-11T15:50:49.404Z,42.73
2022-12-11T15:55:52.897Z,42.07
2022-12-11T16:00:57.365Z,40.43
2022-12-11T16:06:02.317Z,42.00
2022-12-11T16:11:05.466Z,44.87
2022-12-11T16:16:08.930Z,52.30
2022-12-11T16:21:18.199Z,44.33
2022-12-11T16:26:24.011Z,44.63
2022-12-11T16:31:26.936Z,43.23
2022-12-11T16:36:31.333Z,53.13
2022-12-11T16:41:48.145Z,44.23
2022-12-11T16:46:51.421Z,43.03
2022-12-11T16:51:55.710Z,47.33
2022-12-11T16:56:58.572Z,43.77
2022-12-11T17:02:01.627Z,43.10
2022-12-11T17:07:06.085Z,43.97
2022-12-11T17:12:09.413Z,44.67
2022-12-11T17:17:12.268Z,43.10
2022-12-11T17:22:16.704Z,43.80
2022-12-11T17:27:19.662Z,42.93
2022-12-11T17:32:22.572Z,44.27
2022-12-11T17:37:26.893Z,42.67
2022-12-11T17:42:29.838Z,43.47
2022-12-11T17:47:32.811Z,43.10
2022-12-11T17:52:42.484Z,43.70
2022-12-11T17:57:46.983Z,42.93
2022-12-11T18:02:50.031Z,43.43
2022-12-11T18:07:57.635Z,43.30
2022-12-11T18:13:00.929Z,43.17
2022-12-11T18:18:03.816Z,43.50
2022-12-11T18:23:12.120Z,45.17
2022-12-11T18:28:14.990Z,43.53
2022-12-11T18:33:19.959Z,43.40
2022-12-11T18:38:24.724Z,42.27
2022-12-11T18:43:28.623Z,41.50
2022-12-11T18:48:31.534Z,41.57
2022-12-11T18:53:39.170Z,41.73
2022-12-11T18:58:42.708Z,41.87
2022-12-11T19:03:46.944Z,40.47
2022-12-11T19:08:51.880Z,41.87
2022-12-11T19:13:56.552Z,41.40
2022-12-11T19:18:59.894Z,39.43
2022-12-11T19:24:04.210Z,40.70
2022-12-11T19:29:07.530Z,38.43
2022-12-11T19:34:10.472Z,38.37
2022-12-11T19:39:15.861Z,38.63
2022-12-11T19:44:19.256Z,39.67
2022-12-11T19:49:22.216Z,39.60
2022-12-11T19:54:28.232Z,36.67
2022-12-11T19:59:31.129Z,38.30
2022-12-11T20:04:33.991Z,44.17
2022-12-11T20:09:41.455Z,40.27
2022-12-11T20:14:44.387Z,38.37
2022-12-11T20:19:47.351Z,43.70
2022-12-11T20:24:52.063Z,42.00
2022-12-11T20:29:55.041Z,42.57
2022-12-11T20:34:58.046Z,42.43
2022-12-11T20:40:02.834Z,43.87
2022-12-11T20:45:07.174Z,42.77
2022-12-11T20:50:11.219Z,43.53
2022-12-11T20:55:16.404Z,45.40
2022-12-11T21:00:20.793Z,43.63
2022-12-11T21:05:23.953Z,43.73
2022-12-11T21:10:35.013Z,43.17
2022-12-11T21:15:37.991Z,41.97
2022-12-11T21:20:44.089Z,41.17
2022-12-11T21:25:48.747Z,41.00
2022-12-11T21:30:51.760Z,42.70
2022-12-11T21:36:28.343Z,42.87
2022-12-11T21:41:32.744Z,42.23
2022-12-11T21:46:35.849Z,40.00
2022-12-11T21:52:05.711Z,42.30
2022-12-11T21:57:09.932Z,41.30
2022-12-11T22:02:12.996Z,41.23
2022-12-11T22:07:16.289Z,39.40
2022-12-11T22:12:24.354Z,40.67
2022-12-11T22:17:27.219Z,36.97
2022-12-11T22:22:31.675Z,38.33
2022-12-11T22:27:36.390Z,37.83
2022-12-11T22:32:39.329Z,38.10
2022-12-11T22:37:42.207Z,36.10
2022-12-11T22:42:46.411Z,36.77
2022-12-11T22:47:49.348Z,37.03
2022-12-11T22:52:52.217Z,38.13
2022-12-11T22:57:56.435Z,37.30
2022-12-11T23:02:59.404Z,37.67
2022-12-11T23:08:02.546Z,36.77
2022-12-11T23:13:06.953Z,34.90
2022-12-11T23:18:09.828Z,36.07
2022-12-11T23:23:12.688Z,36.27
2022-12-11T23:28:16.900Z,36.70
2022-12-11T23:33:19.799Z,38.37
2022-12-11T23:38:22.659Z,37.77
2022-12-11T23:43:27.474Z,37.83
2022-12-11T23:48:31.093Z,37.27
2022-12-11T23:53:34.152Z,35.87
2022-12-11T23:58:39.326Z,36.03
